createdAt,value
2022-09-01T00:01:43.150Z,99601.34
2022-09-01T00:04:13.908Z,99593.81
2022-09-01T00:06:41.087Z,99599.63
2022-09-01T00:09:12.276Z,99605.31
2022-09-01T00:11:50.487Z,99603.13
2022-09-01T00:14:29.439Z,99603.78
2022-09-01T00:16:59.391Z,99598.19
2022-09-01T00:19:26.634Z,99605.16
2022-09-01T00:21:53.767Z,99613.34
2022-09-01T00:24:20.408Z,99604.69
2022-09-01T00:26:48.119Z,99610.03
2022-09-01T00:29:16.206Z,99613.53
2022-09-01T00:31:43.002Z,99608.06
2022-09-01T00:34:09.928Z,99618.09
2022-09-01T00:36:36.455Z,99610.09
2022-09-01T00:39:05.135Z,99619.28
2022-09-01T00:41:34.902Z,99618.38
2022-09-01T00:44:05.666Z,99623.38
2022-09-01T00:46:47.551Z,99617.31
2022-09-01T00:49:35.032Z,99619.56
2022-09-01T00:52:32.381Z,99623.44
2022-09-01T00:55:08.509Z,99625.72
2022-09-01T00:57:35.478Z,99625.25
2022-09-01T01:00:18.964Z,99623.47
2022-09-01T01:02:47.695Z,99615.94
2022-09-01T01:05:15.577Z,99618.53
2022-09-01T01:07:47.242Z,99621.47
2022-09-01T01:10:15.972Z,99624.88
2022-09-01T01:12:44.040Z,99633.41
2022-09-01T01:15:15.242Z,99621.53
2022-09-01T01:17:41.830Z,99625.75
2022-09-01T01:20:30.698Z,99623.69
2022-09-01T01:23:26.759Z,99627.72
2022-09-01T01:25:59.987Z,99623.38
2022-09-01T01:28:31.061Z,99626.47
2022-09-01T01:31:06.143Z,99619.25
2022-09-01T01:33:40.734Z,99618.31
2022-09-01T01:36:13.427Z,99622.50
2022-09-01T01:38:43.231Z,99628.31
2022-09-01T01:41:11.544Z,99623.50
2022-09-01T01:43:38.848Z,99619.50
2022-09-01T01:46:08.256Z,99622.09
2022-09-01T01:48:38.077Z,99619.69
2022-09-01T01:51:05.887Z,99619.22
2022-09-01T01:53:33.404Z,99622.28
2022-09-01T01:56:01.002Z,99631.91
2022-09-01T01:58:29.003Z,99619.75
2022-09-01T02:00:56.860Z,99620.53
2022-09-01T02:03:26.952Z,99616.53
2022-09-01T02:05:55.042Z,99627.47
2022-09-01T02:08:25.979Z,99617.22
2022-09-01T02:10:55.108Z,99620.56
2022-09-01T02:13:31.284Z,99624.41
2022-09-01T02:16:02.528Z,99617.38
2022-09-01T02:18:35.854Z,99619.16
2022-09-01T02:21:07.091Z,99631.19
2022-09-01T02:23:33.794Z,99625.28
2022-09-01T02:26:18.059Z,99625.28
2022-09-01T02:28:54.265Z,99617.09
2022-09-01T02:31:23.103Z,99616.63
2022-09-01T02:33:50.435Z,99619.53
2022-09-01T02:36:19.451Z,99623.38
2022-09-01T02:38:53.384Z,99612.94
2022-09-01T02:41:25.238Z,99614.09
2022-09-01T02:43:52.461Z,99613.91
2022-09-01T02:46:24.328Z,99615.34
2022-09-01T02:48:51.760Z,99618.06
2022-09-01T02:51:21.200Z,99612.28
2022-09-01T02:53:52.719Z,99610.38
2022-09-01T02:56:25.041Z,99610.38
2022-09-01T02:58:53.013Z,99605.56
2022-09-01T03:01:30.265Z,99610.41
2022-09-01T03:04:03.623Z,99611.06
2022-09-01T03:06:32.509Z,99612.97
2022-09-01T03:09:00.256Z,99607.53
2022-09-01T03:11:29.782Z,99608.66
2022-09-01T03:13:56.711Z,99604.81
2022-09-01T03:16:23.479Z,99612.16
2022-09-01T03:18:51.266Z,99605.94
2022-09-01T03:21:18.015Z,99609.78
2022-09-01T03:23:46.549Z,99606.72
2022-09-01T03:26:14.487Z,99608.66
2022-09-01T03:28:41.210Z,99609.13
2022-09-01T03:31:08.967Z,99603.97
2022-09-01T03:33:36.767Z,99606.41
2022-09-01T03:36:05.087Z,99607.53
2022-09-01T03:38:43.946Z,99608.66
2022-09-01T03:41:13.316Z,99607.72
2022-09-01T03:43:46.854Z,99617.50
2022-09-01T03:46:22.448Z,99610.25
2022-09-01T03:48:55.617Z,99603.19
2022-09-01T03:51:23.650Z,99606.41
2022-09-01T03:53:54.852Z,99600.94
2022-09-01T03:56:24.730Z,99595.50
2022-09-01T03:58:52.168Z,99604.16
2022-09-01T04:01:19.840Z,99602.34
2022-09-01T04:03:49.369Z,99603.63
2022-09-01T04:06:19.355Z,99607.97
2022-09-01T04:08:47.136Z,99608.28
2022-09-01T04:11:18.660Z,99610.53
2022-09-01T04:13:47.382Z,99600.28
2022-09-01T04:16:40.855Z,99609.44
2022-09-01T04:19:19.823Z,99603.84
2022-09-01T04:21:50.265Z,99599.84
2022-09-01T04:24:18.986Z,99602.91
2022-09-01T04:26:48.684Z,99598.09
2022-09-01T04:29:24.204Z,99594.25
2022-09-01T04:31:53.585Z,99599.84
2022-09-01T04:34:22.629Z,99597.94
2022-09-01T04:36:54.362Z,99604.50
2022-09-01T04:39:22.270Z,99599.72
2022-09-01T04:41:50.745Z,99601.47
2022-09-01T04:44:19.102Z,99604.84
2022-09-01T04:46:48.303Z,99610.19
2022-09-01T04:49:20.726Z,99605.34
2022-09-01T04:51:53.421Z,99605.00
2022-09-01T04:54:22.725Z,99601.88
2022-09-01T04:56:52.806Z,99605.50
2022-09-01T04:59:22.577Z,99601.53
2022-09-01T05:01:50.724Z,99606.00
2022-09-01T05:04:21.335Z,99601.44
2022-09-01T05:06:50.565Z,99601.44
2022-09-01T05:09:19.164Z,99597.09
2022-09-01T05:11:46.411Z,99593.63
2022-09-01T05:14:13.698Z,99605.03
2022-09-01T05:16:43.923Z,99598.00
2022-09-01T05:19:14.860Z,99599.28
2022-09-01T05:21:45.749Z,99596.16
2022-09-01T05:24:15.279Z,99594.31
2022-09-01T05:26:43.750Z,99596.59
2022-09-01T05:29:13.768Z,99595.28
2022-09-01T05:31:42.530Z,99596.34
2022-09-01T05:34:10.705Z,99602.31
2022-09-01T05:36:46.302Z,99604.16
2022-09-01T05:39:13.227Z,99603.47
2022-09-01T05:41:41.127Z,99604.50
2022-09-01T05:44:09.464Z,99610.50
2022-09-01T05:46:38.670Z,99607.72
2022-09-01T05:49:13.770Z,99604.44
2022-09-01T05:51:45.815Z,99607.84
2022-09-01T05:54:21.547Z,99607.56
2022-09-01T05:56:48.922Z,99606.31
2022-09-01T05:59:24.750Z,99612.69
2022-09-01T06:01:53.371Z,99616.53
2022-09-01T06:04:20.360Z,99607.69
2022-09-01T06:07:06.095Z,99615.72
2022-09-01T06:09:38.349Z,99612.47
2022-09-01T06:12:05.769Z,99617.31
2022-09-01T06:14:32.360Z,99619.72
2022-09-01T06:16:58.960Z,99613.22
2022-09-01T06:19:25.553Z,99613.84
2022-09-01T06:21:53.263Z,99612.19
2022-09-01T06:24:19.821Z,99616.84
2022-09-01T06:26:46.845Z,99614.25
2022-09-01T06:29:15.504Z,99619.81
2022-09-01T06:31:43.515Z,99620.84
2022-09-01T06:34:14.140Z,99617.13
2022-09-01T06:36:40.802Z,99609.44
2022-09-01T06:39:09.524Z,99611.06
2022-09-01T06:41:38.641Z,99610.16
2022-09-01T06:44:05.211Z,99611.38
2022-09-01T06:46:31.970Z,99606.50
2022-09-01T06:48:59.018Z,99608.31
2022-09-01T06:51:30.980Z,99606.28
2022-09-01T06:53:59.557Z,99599.53
2022-09-01T06:56:32.282Z,99604.84
2022-09-01T06:58:59.553Z,99606.78
2022-09-01T07:01:27.708Z,99609.03
2022-09-01T07:03:57.073Z,99610.78
2022-09-01T07:09:32.098Z,99609.91
2022-09-01T07:17:42.346Z,99609.50
2022-09-01T07:20:26.752Z,99611.31
2022-09-01T07:23:10.484Z,99622.53
2022-09-01T07:26:01.054Z,99618.34
2022-09-01T07:28:39.145Z,99623.84
2022-09-01T07:39:49.138Z,99620.53
2022-09-01T07:42:30.152Z,99611.31
2022-09-01T07:45:26.445Z,99622.56
2022-09-01T07:47:54.853Z,99617.41
2022-09-01T07:50:39.691Z,99625.50
2022-09-01T07:53:08.688Z,99615.16
2022-09-01T07:55:35.446Z,99622.66
2022-09-01T07:58:02.007Z,99619.63
2022-09-01T08:00:31.731Z,99621.97
2022-09-01T08:02:59.081Z,99618.44
2022-09-01T08:05:27.262Z,99612.31
2022-09-01T08:07:54.643Z,99610.81
2022-09-01T08:10:22.232Z,99621.56
2022-09-01T08:12:56.383Z,99622.44
2022-09-01T08:15:40.977Z,99624.00
2022-09-01T08:18:09.155Z,99613.09
2022-09-01T08:20:39.914Z,99609.38
2022-09-01T08:23:07.314Z,99612.56
2022-09-01T08:25:36.392Z,99614.06
2022-09-01T08:28:04.220Z,99612.41
2022-09-01T08:30:35.604Z,99615.31
2022-09-01T08:33:18.064Z,99619.94
2022-09-01T08:35:47.984Z,99613.00
2022-09-01T08:38:14.663Z,99609.94
2022-09-01T08:40:43.597Z,99616.25
2022-09-01T08:43:38.258Z,99611.94
2022-09-01T08:46:12.303Z,99614.59
2022-09-01T08:51:51.993Z,99607.19
2022-09-01T08:54:47.850Z,99599.66
2022-09-01T08:57:18.436Z,99602.22
2022-09-01T08:59:45.081Z,99605.50
2022-09-01T09:02:30.388Z,99596.06
2022-09-01T09:05:23.183Z,99598.25
2022-09-01T09:07:52.720Z,99589.81
2022-09-01T09:10:37.412Z,99599.13
2022-09-01T09:13:16.740Z,99586.34
2022-09-01T09:15:52.191Z,99585.72
2022-09-01T09:19:00.296Z,99592.22
2022-09-01T09:21:33.720Z,99582.63
2022-09-01T09:24:22.378Z,99587.09
2022-09-01T09:26:55.463Z,99582.16
2022-09-01T09:29:23.146Z,99586.84
2022-09-01T09:32:02.930Z,99575.28
2022-09-01T09:34:36.662Z,99573.25
2022-09-01T09:37:24.420Z,99574.28
2022-09-01T09:40:22.602Z,99564.19
2022-09-01T09:42:55.344Z,99564.97
2022-09-01T09:45:21.860Z,99565.72
2022-09-01T09:47:49.532Z,99567.44
2022-09-01T09:50:27.372Z,99562.34
2022-09-01T09:53:11.315Z,99556.06
2022-09-01T09:55:56.503Z,99556.34
2022-09-01T09:58:36.304Z,99555.25
2022-09-01T10:01:24.248Z,99539.03
2022-09-01T10:03:57.591Z,99546.22
2022-09-01T10:06:32.988Z,99543.81
2022-09-01T10:09:02.232Z,99539.88
2022-09-01T10:11:44.939Z,99536.78
2022-09-01T10:14:47.973Z,99532.81
2022-09-01T10:17:15.904Z,99541.34
2022-09-01T10:20:12.137Z,99534.97
2022-09-01T10:22:40.241Z,99542.13
2022-09-01T10:25:13.168Z,99532.72
2022-09-01T10:27:46.366Z,99525.66
2022-09-01T10:30:19.793Z,99523.66
2022-09-01T10:32:55.614Z,99519.38
2022-09-01T10:35:40.603Z,99521.00
2022-09-01T10:38:25.566Z,99521.53
2022-09-01T10:41:14.679Z,99518.00
2022-09-01T10:43:45.118Z,99524.28
2022-09-01T10:46:25.905Z,99518.75
2022-09-01T10:48:55.732Z,99522.31
2022-09-01T10:51:28.919Z,99519.78
2022-09-01T10:54:04.034Z,99515.34
2022-09-01T10:56:42.941Z,99519.72
2022-09-01T10:59:40.330Z,99509.94
2022-09-01T11:02:27.919Z,99509.97
2022-09-01T11:04:55.269Z,99506.63
2022-09-01T11:07:44.353Z,99504.28
2022-09-01T11:10:52.455Z,99504.25
2022-09-01T11:13:34.279Z,99502.28
2022-09-01T11:16:45.839Z,99508.97
2022-09-01T11:19:28.924Z,99496.91
2022-09-01T11:22:15.430Z,99494.59
2022-09-01T11:24:42.435Z,99491.94
2022-09-01T11:27:12.620Z,99486.97
2022-09-01T11:29:53.551Z,99484.66
2022-09-01T11:32:27.768Z,99487.13
2022-09-01T11:34:57.382Z,99490.19
2022-09-01T11:37:27.517Z,99489.38
2022-09-01T11:40:03.792Z,99484.28
2022-09-01T11:42:45.847Z,99475.97
2022-09-01T11:45:24.870Z,99472.09
2022-09-01T11:48:02.240Z,99468.97
2022-09-01T11:50:34.937Z,99462.66
2022-09-01T11:53:08.058Z,99465.78
2022-09-01T11:55:40.061Z,99473.28
2022-09-01T11:58:15.740Z,99468.50
2022-09-01T12:00:45.130Z,99458.63
2022-09-01T12:03:23.046Z,99468.97
2022-09-01T12:06:00.383Z,99468.22
2022-09-01T12:08:31.527Z,99455.53
2022-09-01T12:11:07.302Z,99455.56
2022-09-01T12:13:34.949Z,99446.03
2022-09-01T12:16:20.697Z,99456.28
2022-09-01T12:18:51.197Z,99453.94
2022-09-01T12:21:28.623Z,99453.94
2022-09-01T12:24:12.340Z,99454.72
2022-09-01T12:26:39.697Z,99454.28
2022-09-01T12:29:07.135Z,99439.63
2022-09-01T12:31:34.484Z,99434.78
2022-09-01T12:34:04.660Z,99440.22
2022-09-01T12:36:36.385Z,99439.00
2022-09-01T12:39:18.164Z,99440.13
2022-09-01T12:41:48.583Z,99430.47
2022-09-01T12:44:58.455Z,99427.84
2022-09-01T12:47:33.632Z,99423.41
2022-09-01T12:50:20.277Z,99424.63
2022-09-01T12:52:52.424Z,99429.22
2022-09-01T12:58:10.341Z,99437.16
2022-09-01T13:00:55.812Z,99422.41
2022-09-01T13:03:23.443Z,99422.34
2022-09-01T13:05:54.860Z,99421.88
2022-09-01T13:08:28.379Z,99415.50
2022-09-01T13:10:58.827Z,99409.94
2022-09-01T13:13:27.214Z,99411.09
2022-09-01T13:15:56.689Z,99412.13
2022-09-01T13:18:25.220Z,99396.41
2022-09-01T13:20:53.245Z,99399.66
2022-09-01T13:23:20.997Z,99400.69
2022-09-01T13:25:48.196Z,99395.69
2022-09-01T13:28:16.589Z,99396.44
2022-09-01T13:31:28.538Z,99397.09
2022-09-01T13:36:45.355Z,99388.41
2022-09-01T13:39:13.490Z,99386.03
2022-09-01T13:41:40.158Z,99386.59
2022-09-01T13:44:10.499Z,99384.44
2022-09-01T13:46:58.943Z,99383.34
2022-09-01T13:52:11.206Z,99377.09
2022-09-01T13:54:37.761Z,99375.09
2022-09-01T13:57:04.552Z,99373.63
2022-09-01T13:59:33.010Z,99373.88
2022-09-01T14:02:00.992Z,99370.00
2022-09-01T14:04:27.716Z,99365.03
2022-09-01T14:06:55.116Z,99364.63
2022-09-01T14:09:21.951Z,99362.38
2022-09-01T14:11:49.169Z,99370.34
2022-09-01T14:14:15.707Z,99359.66
2022-09-01T14:16:42.304Z,99372.63
2022-09-01T14:19:11.228Z,99359.13
2022-09-01T14:21:38.867Z,99358.16
2022-09-01T14:26:37.443Z,99371.69
2022-09-01T14:29:04.018Z,99373.75
2022-09-01T14:31:31.992Z,99372.44
2022-09-01T14:33:58.658Z,99364.34
2022-09-01T14:36:26.650Z,99358.09
2022-09-01T14:38:54.214Z,99361.22
2022-09-01T14:41:26.740Z,99351.38
2022-09-01T14:43:57.646Z,99346.38
2022-09-01T14:46:26.490Z,99353.53
2022-09-01T14:48:53.305Z,99347.81
2022-09-01T14:52:10.285Z,99346.94
2022-09-01T14:54:15.397Z,99348.06
2022-09-01T14:56:42.034Z,99341.41
2022-09-01T14:59:09.516Z,99342.88
2022-09-01T15:01:36.408Z,99345.06
2022-09-01T15:04:03.605Z,99337.78
2022-09-01T15:06:30.335Z,99341.47
2022-09-01T15:08:56.949Z,99337.03
2022-09-01T15:11:23.555Z,99338.72
2022-09-01T15:13:52.202Z,99346.34
2022-09-01T15:16:22.119Z,99332.31
2022-09-01T15:18:48.734Z,99344.81
2022-09-01T15:21:32.104Z,99340.19
2022-09-01T15:23:59.440Z,99342.78
2022-09-01T15:26:27.099Z,99339.44
2022-09-01T15:28:53.989Z,99343.06
2022-09-01T15:31:24.837Z,99351.88
2022-09-01T15:34:02.793Z,99354.38
2022-09-01T15:36:30.651Z,99353.75
2022-09-01T15:38:58.701Z,99342.75
2022-09-01T15:41:31.810Z,99345.31
2022-09-01T15:43:58.991Z,99348.53
2022-09-01T15:46:32.721Z,99348.47
2022-09-01T15:49:01.465Z,99345.47
2022-09-01T15:51:32.559Z,99337.16
2022-09-01T15:54:02.955Z,99346.22
2022-09-01T15:56:31.328Z,99342.56
2022-09-01T15:59:01.492Z,99330.50
2022-09-01T16:01:32.061Z,99339.94
2022-09-01T16:03:58.734Z,99332.69
2022-09-01T16:06:26.336Z,99337.38
2022-09-01T16:08:54.565Z,99335.66
2022-09-01T16:11:25.958Z,99329.31
2022-09-01T16:13:53.952Z,99330.91
2022-09-01T16:16:35.210Z,99321.44
2022-09-01T16:19:15.882Z,99316.75
2022-09-01T16:22:06.623Z,99312.13
2022-09-01T16:24:40.883Z,99308.34
2022-09-01T16:27:10.639Z,99313.44
2022-09-01T16:29:55.105Z,99308.84
2022-09-01T16:32:23.450Z,99312.13
2022-09-01T16:34:53.734Z,99308.25
2022-09-01T16:37:32.611Z,99306.84
2022-09-01T16:40:13.998Z,99308.16
2022-09-01T16:43:08.530Z,99307.81
2022-09-01T16:45:48.866Z,99308.34
2022-09-01T16:48:22.116Z,99301.66
2022-09-01T16:51:03.347Z,99312.88
2022-09-01T16:53:48.297Z,99316.88
2022-09-01T16:56:20.771Z,99312.13
2022-09-01T16:59:08.388Z,99313.75
2022-09-01T17:01:49.222Z,99307.47
2022-09-01T17:04:27.723Z,99313.09
2022-09-01T17:07:39.861Z,99312.69
2022-09-01T17:10:24.906Z,99319.44
2022-09-01T17:12:56.094Z,99317.88
2022-09-01T17:15:40.903Z,99316.28
2022-09-01T17:18:22.465Z,99321.81
2022-09-01T17:20:57.730Z,99320.66
2022-09-01T17:23:28.641Z,99312.34
2022-09-01T17:26:01.611Z,99321.84
2022-09-01T17:28:45.230Z,99322.25
2022-09-01T17:31:20.643Z,99315.50
2022-09-01T17:34:02.549Z,99317.50
2022-09-01T17:36:28.975Z,99319.47
2022-09-01T17:39:08.314Z,99317.09
2022-09-01T17:41:59.801Z,99323.38
2022-09-01T17:44:56.222Z,99328.13
2022-09-01T17:47:31.640Z,99323.78
2022-09-01T17:49:58.162Z,99324.16
2022-09-01T17:52:52.820Z,99324.53
2022-09-01T17:55:19.681Z,99328.06
2022-09-01T17:57:59.031Z,99326.81
2022-09-01T18:00:40.093Z,99335.09
2022-09-01T18:03:51.515Z,99331.09
2022-09-01T18:06:35.099Z,99331.09
2022-09-01T18:09:03.216Z,99327.91
2022-09-01T18:12:09.778Z,99327.88
2022-09-01T18:14:56.778Z,99337.31
2022-09-01T18:17:32.744Z,99336.53
2022-09-01T18:20:22.724Z,99338.03
2022-09-01T18:23:07.962Z,99345.47
2022-09-01T18:25:44.926Z,99335.56
2022-09-01T18:28:13.489Z,99341.06
2022-09-01T18:30:53.270Z,99341.44
2022-09-01T18:33:25.910Z,99348.13
2022-09-01T18:36:21.938Z,99355.59
2022-09-01T18:39:01.782Z,99349.69
2022-09-01T18:41:45.703Z,99355.56
2022-09-01T18:44:21.400Z,99352.81
2022-09-01T18:47:34.462Z,99357.88
2022-09-01T18:50:07.579Z,99351.16
2022-09-01T18:53:22.188Z,99352.69
2022-09-01T18:56:07.230Z,99353.47
2022-09-01T18:59:07.462Z,99352.56
2022-09-01T19:01:37.937Z,99350.19
2022-09-01T19:04:28.794Z,99354.78
2022-09-01T19:07:00.395Z,99361.81
2022-09-01T19:09:33.906Z,99351.53
2022-09-01T19:12:19.494Z,99359.72
2022-09-01T19:14:52.475Z,99360.06
2022-09-01T19:17:25.153Z,99362.34
2022-09-01T19:20:04.965Z,99363.41
2022-09-01T19:22:45.053Z,99366.84
2022-09-01T19:25:34.059Z,99373.00
2022-09-01T19:28:16.024Z,99367.31
2022-09-01T19:30:47.707Z,99372.69
2022-09-01T19:33:20.269Z,99374.56
2022-09-01T19:35:49.025Z,99376.44
2022-09-01T19:38:21.357Z,99376.31
2022-09-01T19:40:51.783Z,99376.53
2022-09-01T19:43:21.042Z,99372.44
2022-09-01T19:46:23.624Z,99369.44
2022-09-01T19:48:58.256Z,99373.53
2022-09-01T19:51:33.805Z,99374.91
2022-09-01T19:54:13.240Z,99382.56
2022-09-01T19:56:51.555Z,99378.81
2022-09-01T19:59:42.387Z,99377.75
2022-09-01T20:02:23.489Z,99375.91
2022-09-01T20:05:00.077Z,99372.53
2022-09-01T20:07:35.134Z,99377.81
2022-09-01T20:10:01.677Z,99377.69
2022-09-01T20:12:40.976Z,99381.47
2022-09-01T20:15:24.867Z,99377.78
2022-09-01T20:18:00.175Z,99381.94
2022-09-01T20:20:37.755Z,99380.28
2022-09-01T20:23:33.149Z,99375.78
2022-09-01T20:26:04.994Z,99378.09
2022-09-01T20:28:31.384Z,99385.75
2022-09-01T20:31:07.651Z,99381.44
2022-09-01T20:33:45.157Z,99383.31
2022-09-01T20:36:17.034Z,99374.91
2022-09-01T20:39:17.998Z,99377.94
2022-09-01T20:41:51.931Z,99373.88
2022-09-01T20:44:39.648Z,99373.78
2022-09-01T20:47:07.248Z,99381.59
2022-09-01T20:49:37.025Z,99374.41
2022-09-01T20:52:13.987Z,99366.47
2022-09-01T20:54:51.543Z,99381.25
2022-09-01T20:57:41.458Z,99370.22
2022-09-01T21:00:17.171Z,99372.09
2022-09-01T21:02:46.790Z,99367.75
2022-09-01T21:05:32.261Z,99377.16
2022-09-01T21:08:29.047Z,99374.63
2022-09-01T21:11:21.957Z,99369.41
2022-09-01T21:13:57.320Z,99374.81
2022-09-01T21:17:01.257Z,99371.91
2022-09-01T21:19:39.913Z,99359.25
2022-09-01T21:22:14.996Z,99370.16
2022-09-01T21:24:43.725Z,99366.16
2022-09-01T21:27:18.803Z,99360.94
2022-09-01T21:29:54.575Z,99361.22
2022-09-01T21:32:22.632Z,99356.91
2022-09-01T21:34:50.576Z,99366.94
2022-09-01T21:37:18.566Z,99357.50
2022-09-01T21:39:45.356Z,99365.28
2022-09-01T21:42:13.540Z,99355.03
2022-09-01T21:44:41.280Z,99370.94
2022-09-01T21:47:08.083Z,99373.25
2022-09-01T21:49:34.617Z,99363.78
2022-09-01T21:52:01.174Z,99365.72
2022-09-01T21:54:27.688Z,99366.44
2022-09-01T21:56:54.331Z,99364.38
2022-09-01T21:59:21.370Z,99352.97
2022-09-01T22:01:48.800Z,99359.59
2022-09-01T22:04:18.305Z,99358.38
2022-09-01T22:06:46.399Z,99357.13
2022-09-01T22:09:21.310Z,99353.50
2022-09-01T22:11:49.948Z,99357.41
2022-09-01T22:14:18.313Z,99349.88
2022-09-01T22:16:45.168Z,99358.31
2022-09-01T22:19:11.778Z,99350.34
2022-09-01T22:21:40.062Z,99353.00
2022-09-01T22:24:07.564Z,99348.22
2022-09-01T22:26:35.114Z,99351.31
2022-09-01T22:29:04.830Z,99351.56
2022-09-01T22:31:33.210Z,99342.81
2022-09-01T22:34:00.878Z,99349.25
2022-09-01T22:36:48.472Z,99354.16
2022-09-01T22:39:16.376Z,99347.44
2022-09-01T22:41:43.189Z,99349.28
2022-09-01T22:44:10.428Z,99354.66
2022-09-01T22:46:38.160Z,99358.34
2022-09-01T22:49:06.558Z,99351.97
2022-09-01T22:51:33.860Z,99343.19
2022-09-01T22:54:00.587Z,99349.72
2022-09-01T22:56:31.534Z,99344.59
2022-09-01T22:59:01.864Z,99348.03
2022-09-01T23:01:33.763Z,99349.50
2022-09-01T23:04:02.099Z,99350.66
2022-09-01T23:06:30.026Z,99344.25
2022-09-01T23:08:58.648Z,99354.38
2022-09-01T23:11:26.131Z,99344.13
2022-09-01T23:13:53.659Z,99343.56
2022-09-01T23:16:21.689Z,99334.91
2022-09-01T23:18:49.644Z,99342.69
2022-09-01T23:21:18.972Z,99336.06
2022-09-01T23:23:46.181Z,99330.59
2022-09-01T23:26:14.599Z,99335.03
2022-09-01T23:28:43.111Z,99335.75
2022-09-01T23:31:12.675Z,99331.78
2022-09-01T23:33:39.697Z,99327.22
2022-09-01T23:36:09.392Z,99328.81
2022-09-01T23:38:37.324Z,99328.34
2022-09-01T23:41:07.507Z,99331.31
2022-09-01T23:43:34.175Z,99320.72
2022-09-01T23:46:00.842Z,99320.28
2022-09-01T23:48:28.271Z,99327.00
2022-09-01T23:51:06.171Z,99323.47
2022-09-01T23:53:35.342Z,99328.47
2022-09-01T23:56:03.934Z,99322.88
2022-09-01T23:58:31.989Z,99320.50
